Time;durP1;ratioP1;P1;durP2;ratioP2;P2;SDS_P1;SDS_P2;PMS_P1;PMS_P2;Temp;Humidity;BMP_temperature;BMP_pressure;BME280_temperature;BME280_humidity;BME280_pressure;Samples;Min_cycle;Max_cycle;Signal;HPM_P1;HPM_P2
2021/09/30 00:00:41;;;;;;;5.78;4.78;;;;;;;19.03;36.67;101087.81;1680201;82;21100;-39
2021/09/30 00:03:11;;;;;;;5.70;5.03;;;;;;;19.04;36.42;101093.08;1737346;81;21459;-39
2021/09/30 00:05:38;;;;;;;5.90;4.83;;;;;;;19.05;36.36;101096.63;1757184;80;21056;-40
2021/09/30 00:08:06;;;;;;;8.25;5.37;;;;;;;19.06;36.52;101089.01;1748753;81;21086;-39
2021/09/30 00:10:33;;;;;;;6.58;5.10;;;;;;;19.07;36.51;101093.42;1707881;79;21659;-39
2021/09/30 00:13:07;;;;;;;6.62;4.95;;;;;;;19.06;36.42;101095.68;1739829;80;21130;-40
2021/09/30 00:15:53;;;;;;;8.15;5.85;;;;;;;19.05;36.14;101101.49;1712441;82;20936;-39
2021/09/30 00:47:54;;;;;;;6.97;5.58;;;;;;;18.87;36.29;101090.30;1746433;80;21023;-39
2021/09/30 00:50:27;;;;;;;7.80;5.67;;;;;;;18.85;36.20;101084.18;1746768;80;21088;-39
2021/09/30 00:53:13;;;;;;;9.50;5.60;;;;;;;18.83;36.33;101084.25;1758308;80;21042;-40
2021/09/30 00:55:55;;;;;;;8.40;5.78;;;;;;;18.83;36.33;101092.69;1758092;80;21064;-41
2021/09/30 02:27:41;;;;;;;6.08;5.35;;;;;;;18.40;36.95;101089.19;1708625;81;20998;-40
2021/09/30 02:59:59;;;;;;;5.33;4.80;;;;;;;18.34;36.85;101095.63;1745878;79;20217;-40
2021/09/30 03:02:27;;;;;;;6.28;4.72;;;;;;;18.36;36.78;101099.12;1738932;80;21054;-39
2021/09/30 03:04:55;;;;;;;5.75;5.12;;;;;;;18.36;36.74;101087.98;1752230;80;22321;-41
2021/09/30 03:07:22;;;;;;;6.35;5.35;;;;;;;18.36;36.68;101091.13;1736749;79;21035;-41
2021/09/30 03:09:48;;;;;;;7.65;5.37;;;;;;;18.35;36.68;101097.38;1738177;81;21776;-41
2021/09/30 03:12:30;;;;;;;6.40;5.60;;;;;;;18.35;36.76;101092.05;1730386;80;20974;-39
2021/09/30 03:18:12;;;;;;;6.62;4.90;;;;;;;18.32;36.64;101093.50;1730034;80;21087;-39
2021/09/30 03:20:45;;;;;;;7.47;5.50;;;;;;;18.31;36.84;101091.78;1730559;80;21500;-40
2021/09/30 03:23:16;;;;;;;5.97;5.25;;;;;;;18.31;36.57;101090.45;1716486;82;21579;-39
2021/09/30 03:25:46;;;;;;;5.60;5.05;;;;;;;18.28;36.60;101098.56;1744321;80;20979;-42
2021/09/30 03:28:11;;;;;;;6.75;5.05;;;;;;;18.24;36.75;101092.95;1714446;82;21058;-40
2021/09/30 03:30:37;;;;;;;6.85;5.42;;;;;;;18.23;36.84;101089.90;1743107;80;22164;-41
2021/09/30 03:33:06;;;;;;;6.83;5.28;;;;;;;18.22;36.92;101097.48;1727708;80;21137;-42
2021/09/30 03:35:36;;;;;;;19.07;12.13;;;;;;;18.24;36.84;101090.28;1723726;80;21151;-41
2021/09/30 03:38:03;;;;;;;18.10;13.22;;;;;;;18.24;36.61;101086.28;1764461;79;21016;-40
2021/09/30 03:40:30;;;;;;;17.07;10.65;;;;;;;18.23;36.53;101092.56;1726363;81;21106;-41
2021/09/30 03:42:58;;;;;;;18.82;11.43;;;;;;;18.20;36.70;101087.73;1725156;81;21043;-41
2021/09/30 03:45:24;;;;;;;16.42;11.88;;;;;;;18.19;36.63;101089.16;1741803;79;21453;-41
2021/09/30 03:47:55;;;;;;;15.72;10.50;;;;;;;18.16;36.51;101086.14;1768036;78;21226;-41
2021/09/30 03:50:26;;;;;;;15.48;10.00;;;;;;;18.14;36.51;101081.35;1747359;80;21043;-41
2021/09/30 03:53:11;;;;;;;13.30;9.70;;;;;;;18.10;36.52;101089.52;1745381;79;21050;-40
2021/09/30 03:56:32;;;;;;;15.50;9.38;;;;;;;18.08;36.76;101092.25;1757886;79;21133;-41
2021/09/30 04:00:48;;;;;;;14.40;8.80;;;;;;;18.08;36.56;101093.58;1750515;80;21780;-40
2021/09/30 04:03:16;;;;;;;17.62;9.00;;;;;;;18.06;36.64;101092.78;1744767;80;22307;-41
2021/09/30 04:05:46;;;;;;;14.43;7.83;;;;;;;18.05;36.67;101093.70;1733427;80;21169;-40
2021/09/30 04:08:15;;;;;;;10.08;7.53;;;;;;;18.06;36.52;101098.11;1739268;80;21531;-41
2021/09/30 04:10:44;;;;;;;11.70;7.67;;;;;;;18.04;36.77;101097.31;1762548;80;21112;-41
2021/09/30 04:13:10;;;;;;;13.22;6.78;;;;;;;18.05;36.57;101099.02;1763744;80;21766;-40
2021/09/30 04:15:36;;;;;;;8.85;7.22;;;;;;;18.04;36.70;101098.64;1728357;80;21055;-40
2021/09/30 04:18:03;;;;;;;13.50;7.50;;;;;;;18.01;36.76;101094.29;1761505;80;21812;-41
2021/09/30 04:20:30;;;;;;;12.10;7.15;;;;;;;18.03;36.49;101102.70;1725320;80;21114;-41
2021/09/30 04:23:02;;;;;;;10.05;7.25;;;;;;;18.00;36.59;101094.34;1745680;80;21092;-40
2021/09/30 04:25:26;;;;;;;20.02;6.70;;;;;;;18.00;36.63;101097.02;1727260;81;21149;-41
2021/09/30 04:27:53;;;;;;;14.07;7.00;;;;;;;18.02;37.63;101096.48;1719972;80;21017;-40
2021/09/30 04:30:20;;;;;;;11.55;6.33;;;;;;;18.10;38.38;101098.37;1757943;79;21084;-40
2021/09/30 04:32:51;;;;;;;10.28;6.90;;;;;;;18.24;38.82;101099.16;1658613;81;21020;-40
2021/09/30 04:35:17;;;;;;;9.15;6.65;;;;;;;18.39;38.89;101100.30;1707578;80;21693;-41
2021/09/30 04:37:43;;;;;;;6.50;5.10;;;;;;;18.56;38.96;101099.13;1743735;80;21090;-42
2021/09/30 04:40:12;;;;;;;6.15;5.40;;;;;;;18.70;39.00;101103.02;1720072;79;21086;-41
2021/09/30 04:42:38;;;;;;;11.30;5.50;;;;;;;18.84;38.96;101099.29;1728311;80;21019;-43
2021/09/30 04:45:07;;;;;;;11.10;5.50;;;;;;;18.96;38.93;101101.03;1753150;80;21153;-40
2021/09/30 04:47:34;;;;;;;5.78;4.95;;;;;;;19.06;38.86;101099.68;1744255;80;21047;-40
2021/09/30 04:50:10;;;;;;;7.92;4.80;;;;;;;19.16;38.77;101103.66;1751982;80;21124;-39
2021/09/30 04:52:37;;;;;;;8.68;5.28;;;;;;;19.25;38.79;101097.92;1763765;79;21066;-40
2021/09/30 04:55:05;;;;;;;7.55;5.20;;;;;;;19.35;38.94;101102.83;1718107;81;21048;-40
2021/09/30 04:57:32;;;;;;;9.85;5.15;;;;;;;19.42;39.08;101106.97;1706591;82;21054;-40
2021/09/30 04:59:59;;;;;;;9.58;4.95;;;;;;;19.50;39.30;101103.45;1756219;80;21619;-40
2021/09/30 05:02:34;;;;;;;10.72;5.22;;;;;;;19.58;39.52;101107.96;1694842;81;21799;-40
2021/09/30 05:05:00;;;;;;;9.40;5.65;;;;;;;19.66;39.67;101106.28;1760994;79;21028;-39
2021/09/30 05:07:28;;;;;;;9.48;5.92;;;;;;;19.71;39.76;101107.41;1722385;80;21114;-40
2021/09/30 05:09:55;;;;;;;8.58;5.25;;;;;;;19.78;39.80;101115.07;1713178;80;21063;-40
2021/09/30 05:12:24;;;;;;;8.30;5.30;;;;;;;19.87;39.91;101116.46;1760097;79;21114;-40
2021/09/30 05:14:52;;;;;;;8.63;5.30;;;;;;;19.92;40.02;101111.77;1747798;79;22245;-40
2021/09/30 05:17:21;;;;;;;9.20;5.37;;;;;;;19.98;40.08;101118.60;1757801;79;20987;-41
2021/09/30 05:19:51;;;;;;;7.25;5.40;;;;;;;20.02;40.13;101118.39;1773876;79;21045;-40
2021/09/30 05:22:18;;;;;;;10.03;4.95;;;;;;;20.07;40.16;101121.29;1709669;80;21084;-42
2021/09/30 05:24:45;;;;;;;10.00;5.30;;;;;;;20.11;40.17;101116.21;1739092;80;21115;-41
2021/09/30 05:27:12;;;;;;;11.25;5.50;;;;;;;20.16;40.13;101122.19;1760889;79;23140;-41
2021/09/30 05:29:39;;;;;;;7.92;4.87;;;;;;;20.20;40.08;101125.09;1718942;80;21116;-40
2021/09/30 05:32:07;;;;;;;7.33;5.15;;;;;;;20.25;40.08;101124.87;1747347;80;21569;-40
2021/09/30 05:34:36;;;;;;;10.10;5.05;;;;;;;20.29;40.07;101123.32;1749130;79;21256;-41
2021/09/30 05:37:04;;;;;;;6.80;4.50;;;;;;;20.34;40.01;101128.41;1733027;81;21054;-40
2021/09/30 05:39:30;;;;;;;7.47;4.80;;;;;;;20.38;39.92;101132.20;1763921;80;21162;-40
2021/09/30 05:41:57;;;;;;;6.37;4.65;;;;;;;20.44;39.85;101137.70;1760069;80;21505;-40
2021/09/30 05:44:26;;;;;;;7.47;5.33;;;;;;;20.48;39.77;101138.45;1763812;80;21594;-40
2021/09/30 05:46:55;;;;;;;9.58;4.42;;;;;;;20.51;39.76;101135.59;1749704;79;21682;-40
2021/09/30 05:49:23;;;;;;;7.92;4.53;;;;;;;20.55;39.69;101137.19;1729620;79;21005;-39
2021/09/30 05:51:51;;;;;;;5.40;4.62;;;;;;;20.59;39.60;101133.40;1746535;80;22224;-39
2021/09/30 05:54:19;;;;;;;7.03;4.28;;;;;;;20.63;39.59;101136.36;1671565;81;20983;-39
2021/09/30 05:56:54;;;;;;;6.83;4.70;;;;;;;20.68;39.49;101139.66;1733495;80;26564;-39
2021/09/30 05:59:21;;;;;;;5.62;4.30;;;;;;;20.71;39.46;101140.85;1718073;81;21055;-39
2021/09/30 06:02:39;;;;;;;7.22;4.20;;;;;;;20.74;39.44;101140.66;1733356;80;21022;-39
2021/09/30 06:05:55;;;;;;;6.08;4.45;;;;;;;20.78;39.42;101140.92;1750416;79;21128;-40
2021/09/30 06:14:47;;;;;;;5.58;3.95;;;;;;;20.95;39.19;101145.87;1738882;80;21904;-40
2021/09/30 06:17:16;;;;;;;4.62;3.87;;;;;;;20.98;39.20;101147.06;1743318;79;21079;-41
2021/09/30 06:19:44;;;;;;;5.65;3.80;;;;;;;21.02;39.26;101144.61;1750417;80;21071;-40
2021/09/30 06:22:11;;;;;;;4.87;3.65;;;;;;;21.05;39.28;101147.12;1746641;79;21047;-40
2021/09/30 06:24:39;;;;;;;6.05;4.12;;;;;;;21.09;39.27;101143.33;1760223;79;21090;-39
2021/09/30 06:27:05;;;;;;;5.22;4.03;;;;;;;21.12;39.18;101144.51;1749933;79;21050;-40
2021/09/30 06:29:32;;;;;;;4.40;4.00;;;;;;;21.15;39.15;101148.37;1716958;81;21085;-41
2021/09/30 06:32:01;;;;;;;4.17;3.67;;;;;;;21.19;39.12;101152.22;1744617;79;21636;-39
2021/09/30 06:34:30;;;;;;;4.35;3.72;;;;;;;21.21;39.11;101151.66;1745354;80;21010;-39
2021/09/30 06:36:59;;;;;;;4.50;3.60;;;;;;;21.24;39.13;101148.34;1743224;80;21035;-40
2021/09/30 06:39:26;;;;;;;7.58;4.20;;;;;;;21.28;39.05;101150.38;1760475;80;21573;-40
2021/09/30 06:41:53;;;;;;;4.90;3.62;;;;;;;21.31;39.03;101148.89;1753531;80;21576;-39
2021/09/30 06:44:37;;;;;;;3.85;3.50;;;;;;;21.34;39.01;101150.06;1745657;80;21099;-40
2021/09/30 06:47:22;;;;;;;6.00;4.20;;;;;;;21.37;38.99;101155.26;1753101;80;21100;-40
2021/09/30 06:49:49;;;;;;;5.15;3.87;;;;;;;21.41;38.92;101156.81;1747717;80;21075;-40
2021/09/30 06:52:30;;;;;;;6.30;4.00;;;;;;;21.43;38.91;101160.27;1727718;80;20989;-39
2021/09/30 06:54:58;;;;;;;4.90;3.83;;;;;;;21.46;38.86;101159.25;1772563;79;21211;-40
2021/09/30 06:57:30;;;;;;;6.08;4.00;;;;;;;21.49;38.85;101164.48;1713176;79;21108;-40
2021/09/30 07:00:15;;;;;;;;;;;;;;;21.49;38.82;101159.98;1744389;80;21094;-40
2021/09/30 07:03:02;;;;;;;3.98;3.20;;;;;;;21.51;38.85;101154.05;1755186;80;20404;-41
2021/09/30 07:05:35;;;;;;;5.83;3.67;;;;;;;21.55;38.84;101163.27;1763511;79;21053;-40
2021/09/30 07:08:03;;;;;;;4.37;3.45;;;;;;;21.56;38.82;101159.17;1755580;80;21079;-40
2021/09/30 07:10:31;;;;;;;3.95;3.30;;;;;;;21.58;38.81;101156.41;1746383;80;21554;-41
2021/09/30 07:12:57;;;;;;;6.03;3.87;;;;;;;21.62;38.75;101159.30;1738568;80;21051;-40
2021/09/30 07:15:25;;;;;;;6.15;4.05;;;;;;;21.64;38.75;101158.77;1734178;79;21572;-40
2021/09/30 07:17:51;;;;;;;5.58;3.72;;;;;;;21.67;38.73;101155.89;1738260;80;21354;-40
2021/09/30 07:20:18;;;;;;;4.62;3.85;;;;;;;21.70;38.70;101157.06;1747530;79;21112;-40
2021/09/30 07:22:44;;;;;;;4.92;3.55;;;;;;;21.73;38.69;101159.58;1763568;80;21357;-40
2021/09/30 07:25:11;;;;;;;4.53;3.70;;;;;;;21.76;38.67;101159.42;1735510;80;21159;-40
2021/09/30 07:27:37;;;;;;;4.60;3.67;;;;;;;21.80;38.60;101159.63;1771439;80;21817;-40
2021/09/30 07:30:07;;;;;;;5.75;3.70;;;;;;;21.84;38.58;101165.22;1756552;80;21025;-41
2021/09/30 07:32:34;;;;;;;4.45;3.33;;;;;;;21.86;38.53;101162.45;1752855;80;21104;-39
2021/09/30 07:35:00;;;;;;;5.87;3.95;;;;;;;21.89;38.54;101170.33;1751014;79;21032;-40
2021/09/30 07:37:26;;;;;;;5.22;3.87;;;;;;;21.92;38.49;101161.23;1745239;79;21049;-41
2021/09/30 07:39:53;;;;;;;5.53;3.58;;;;;;;21.96;38.47;101164.16;1735939;80;21108;-40
2021/09/30 07:42:19;;;;;;;4.70;3.52;;;;;;;21.99;38.43;101162.61;1759632;79;21048;-41
2021/09/30 07:44:46;;;;;;;5.83;3.90;;;;;;;22.01;38.43;101170.13;1740261;79;21140;-41
2021/09/30 07:47:13;;;;;;;5.50;3.70;;;;;;;22.04;38.39;101168.58;1717464;81;21058;-40
2021/09/30 07:49:40;;;;;;;8.05;3.65;;;;;;;22.08;38.32;101164.80;1710819;80;21121;-40
2021/09/30 07:52:06;;;;;;;3.85;3.55;;;;;;;22.10;38.31;101167.39;1739942;80;21059;-40
2021/09/30 07:54:33;;;;;;;6.30;3.33;;;;;;;22.12;38.29;101162.31;1752376;80;21075;-40
2021/09/30 07:57:00;;;;;;;5.17;3.25;;;;;;;22.14;38.27;101163.12;1731062;79;22242;-41
2021/09/30 07:59:27;;;;;;;4.03;3.10;;;;;;;22.16;38.26;101167.91;1734776;80;20989;-40
2021/09/30 08:01:55;;;;;;;4.08;3.67;;;;;;;22.18;38.24;101168.67;1744724;80;21185;-40
2021/09/30 08:04:22;;;;;;;4.20;3.75;;;;;;;22.19;38.23;101170.42;1749290;80;21539;-40
2021/09/30 08:06:48;;;;;;;5.85;3.52;;;;;;;22.22;38.25;101165.34;1742952;80;20994;-40
2021/09/30 08:09:15;;;;;;;4.85;3.37;;;;;;;22.24;38.26;101172.36;1748072;80;21809;-40
2021/09/30 08:11:43;;;;;;;5.33;3.62;;;;;;;22.25;38.22;101171.39;1743084;79;21491;-42
2021/09/30 08:14:09;;;;;;;4.42;3.58;;;;;;;22.28;38.24;101168.17;1745753;79;21079;-40
2021/09/30 08:16:36;;;;;;;4.97;3.70;;;;;;;22.30;38.21;101168.48;1753097;80;21571;-40
2021/09/30 08:19:04;;;;;;;4.45;3.45;;;;;;;22.33;38.22;101167.45;1742517;80;21126;-40
2021/09/30 08:21:32;;;;;;;5.33;3.85;;;;;;;22.34;38.22;101170.51;1728422;81;21788;-40
2021/09/30 08:23:58;;;;;;;3.80;3.20;;;;;;;22.36;38.22;101167.25;1722056;81;21807;-41
2021/09/30 08:26:25;;;;;;;3.92;3.22;;;;;;;22.38;38.20;101166.23;1726783;80;21091;-40
2021/09/30 08:28:53;;;;;;;4.85;3.67;;;;;;;22.42;38.20;101168.25;1750313;80;21056;-41
2021/09/30 08:31:21;;;;;;;4.37;3.15;;;;;;;22.44;38.21;101167.67;1747246;80;22193;-40
2021/09/30 08:33:49;;;;;;;5.90;3.60;;;;;;;22.46;38.19;101171.16;1756366;79;21804;-41
2021/09/30 08:36:16;;;;;;;6.22;3.30;;;;;;;22.48;38.15;101160.31;1734761;80;20995;-41
2021/09/30 08:38:44;;;;;;;4.65;3.60;;;;;;;22.50;38.14;101166.48;1709420;80;21119;-40
2021/09/30 08:41:11;;;;;;;4.90;3.75;;;;;;;22.51;38.13;101167.73;1749706;80;21416;-40
2021/09/30 08:43:38;;;;;;;3.75;3.20;;;;;;;22.53;38.12;101167.16;1757431;80;21584;-41
2021/09/30 08:46:06;;;;;;;4.87;3.52;;;;;;;22.55;38.11;101171.95;1749613;80;21111;-41
2021/09/30 08:48:35;;;;;;;4.55;3.12;;;;;;;22.56;38.10;101162.96;1747153;80;21455;-40
2021/09/30 08:51:04;;;;;;;6.22;3.37;;;;;;;22.58;38.07;101165.06;1739482;80;21584;-42
2021/09/30 08:53:31;;;;;;;5.67;3.77;;;;;;;22.60;38.04;101169.86;1759074;80;21107;-40
2021/09/30 08:55:58;;;;;;;4.40;3.30;;;;;;;22.63;38.05;101172.37;1734405;80;21180;-40
2021/09/30 08:58:25;;;;;;;4.50;3.27;;;;;;;22.66;38.02;101165.09;1732596;80;21082;-40
2021/09/30 09:00:53;;;;;;;3.10;2.85;;;;;;;22.67;37.99;101164.14;1708991;81;21071;-41
2021/09/30 09:03:46;;;;;;;4.25;3.40;;;;;;;22.69;38.01;101160.88;1727153;81;21000;-40
2021/09/30 09:06:29;;;;;;;4.58;3.30;;;;;;;22.70;37.99;101162.14;1743647;79;21062;-40
2021/09/30 09:09:20;;;;;;;6.85;4.08;;;;;;;22.74;38.02;101158.30;1751245;79;21127;-40
2021/09/30 09:11:49;;;;;;;5.50;3.70;;;;;;;22.77;38.90;101157.27;1758110;80;22160;-40
2021/09/30 09:14:27;;;;;;;5.85;3.42;;;;;;;22.79;39.66;101155.35;1743578;80;21605;-40
2021/09/30 09:17:00;;;;;;;6.65;4.05;;;;;;;22.81;39.98;101161.48;1740910;80;21016;-39
2021/09/30 09:19:44;;;;;;;5.58;4.10;;;;;;;22.81;40.21;101158.80;1757026;79;21574;-42
2021/09/30 09:22:16;;;;;;;7.17;4.17;;;;;;;22.82;40.32;101160.54;1726750;79;20993;-41
2021/09/30 09:24:56;;;;;;;6.83;3.75;;;;;;;22.83;40.51;101158.26;1736386;80;21825;-41
2021/09/30 09:27:23;;;;;;;7.22;3.98;;;;;;;22.84;40.54;101159.97;1711823;81;21098;-40
2021/09/30 09:29:49;;;;;;;4.97;3.77;;;;;;;22.84;40.64;101157.28;1743427;80;21533;-41
2021/09/30 09:32:16;;;;;;;6.00;3.45;;;;;;;22.85;40.63;101163.05;1758235;81;21124;-41
2021/09/30 09:34:43;;;;;;;5.60;3.90;;;;;;;22.85;40.65;101160.36;1745956;79;21032;-41
2021/09/30 09:37:30;;;;;;;4.85;3.37;;;;;;;22.85;40.68;101157.68;1758029;79;21134;-40
2021/09/30 09:39:58;;;;;;;7.62;3.90;;;;;;;22.86;40.68;101155.36;1759130;79;21116;-41
2021/09/30 09:42:30;;;;;;;5.83;3.72;;;;;;;22.87;40.75;101159.78;1747836;79;21095;-40
2021/09/30 09:45:06;;;;;;;6.33;3.80;;;;;;;22.87;40.75;101158.45;1750055;80;21052;-41
2021/09/30 09:47:35;;;;;;;4.70;3.60;;;;;;;22.90;40.78;101160.09;1761852;79;20984;-41
2021/09/30 09:50:24;;;;;;;6.70;3.87;;;;;;;22.91;40.78;101161.80;1737237;79;21138;-42
2021/09/30 09:53:00;;;;;;;6.47;3.25;;;;;;;22.91;40.80;101157.29;1719679;80;21005;-41
2021/09/30 09:55:31;;;;;;;5.45;3.45;;;;;;;22.93;40.84;101157.20;1745021;81;21018;-42
2021/09/30 09:58:04;;;;;;;5.60;3.00;;;;;;;22.93;40.84;101159.43;1735994;79;21814;-40
2021/09/30 10:00:32;;;;;;;6.10;3.90;;;;;;;22.95;40.84;101162.87;1771618;78;20993;-41
2021/09/30 10:03:22;;;;;;;8.13;3.62;;;;;;;22.96;40.80;101162.39;1746567;80;22266;-41
2021/09/30 10:05:49;;;;;;;5.90;3.70;;;;;;;22.97;40.81;101162.30;1754205;79;21094;-42
2021/09/30 10:08:17;;;;;;;5.47;3.65;;;;;;;22.97;40.78;101158.27;1755628;80;21084;-42
2021/09/30 10:10:46;;;;;;;5.00;3.50;;;;;;;22.99;40.78;101158.19;1758411;80;21139;-43
2021/09/30 10:13:12;;;;;;;6.10;3.67;;;;;;;23.00;40.77;101149.19;1748555;79;21609;-41
2021/09/30 10:15:41;;;;;;;5.12;3.30;;;;;;;23.00;40.76;101153.21;1739256;80;20996;-41
2021/09/30 10:18:09;;;;;;;3.83;2.83;;;;;;;23.02;40.75;101155.80;1739963;80;21676;-41
2021/09/30 10:20:39;;;;;;;3.80;3.40;;;;;;;23.03;40.71;101157.02;1741208;80;21688;-41
2021/09/30 10:23:09;;;;;;;3.40;3.10;;;;;;;23.04;40.68;101163.28;1754091;79;21009;-41
2021/09/30 10:25:43;;;;;;;6.05;3.52;;;;;;;23.05;40.68;101154.25;1747234;80;21573;-40
2021/09/30 10:28:12;;;;;;;4.08;3.50;;;;;;;23.06;40.66;101155.98;1716189;82;21122;-40
2021/09/30 10:30:48;;;;;;;5.67;3.55;;;;;;;23.07;40.63;101151.05;1714840;82;21062;-41
2021/09/30 10:33:22;;;;;;;3.98;3.47;;;;;;;23.08;40.62;101152.76;1760985;80;21661;-41
2021/09/30 10:35:52;;;;;;;3.85;3.12;;;;;;;23.08;40.58;101153.64;1686913;80;21114;-42
2021/09/30 10:38:25;;;;;;;3.85;3.37;;;;;;;23.10;40.57;101145.47;1755744;80;20978;-41
2021/09/30 10:41:09;;;;;;;4.97;3.45;;;;;;;23.11;40.58;101149.89;1749516;79;22185;-41
2021/09/30 10:43:47;;;;;;;4.83;3.12;;;;;;;23.12;40.55;101147.12;1729798;81;21060;-41
2021/09/30 10:46:36;;;;;;;4.00;3.25;;;;;;;23.14;40.52;101155.08;1752945;79;21005;-41
2021/09/30 10:49:08;;;;;;;5.30;3.25;;;;;;;23.15;40.49;101144.25;1734369;80;21134;-40
2021/09/30 10:51:34;;;;;;;3.85;3.37;;;;;;;23.18;40.46;101143.17;1728447;80;21046;-41
2021/09/30 10:54:01;;;;;;;4.22;2.98;;;;;;;23.19;40.44;101140.89;1757113;79;21105;-41
2021/09/30 10:56:39;;;;;;;1193.90;830.35;;;;;;;23.20;40.39;101137.26;1734848;80;21035;-39
2021/09/30 10:59:13;;;;;;;595.00;509.85;;;;;;;23.22;38.63;101143.84;1736661;79;21489;-40
2021/09/30 11:01:53;;;;;;;348.90;302.20;;;;;;;23.23;38.08;101141.07;1727231;80;21134;-39
2021/09/30 11:04:21;;;;;;;311.55;266.60;;;;;;;23.21;37.23;101143.00;1735841;80;21162;-40
2021/09/30 11:07:12;;;;;;;283.07;244.80;;;;;;;23.20;36.85;101139.95;1756502;80;21114;-40
2021/09/30 11:09:39;;;;;;;213.15;179.45;;;;;;;23.19;36.33;101128.80;1719657;80;21001;-41
2021/09/30 11:12:12;;;;;;;174.35;140.85;;;;;;;23.15;36.04;101128.14;1743615;80;21064;-40
2021/09/30 11:14:52;;;;;;;166.53;131.47;;;;;;;23.13;35.35;101121.13;1725305;81;21059;-40
2021/09/30 11:17:37;;;;;;;120.53;96.35;;;;;;;23.10;35.51;101121.30;1753117;79;21094;-41
2021/09/30 11:20:37;;;;;;;118.72;94.13;;;;;;;23.08;34.90;101123.23;1769453;80;21131;-39
2021/09/30 11:23:04;;;;;;;107.72;86.05;;;;;;;23.01;33.82;101116.00;1734041;79;20981;-39
2021/09/30 11:26:07;;;;;;;113.62;91.67;;;;;;;22.93;34.19;101116.48;1741683;80;22137;-40
2021/09/30 11:28:34;;;;;;;96.47;79.30;;;;;;;22.89;34.73;101120.30;1761317;80;21090;-39
2021/09/30 11:31:29;;;;;;;76.00;59.55;;;;;;;22.86;34.62;101117.79;1755192;79;20904;-39
2021/09/30 11:34:00;;;;;;;67.08;51.68;;;;;;;22.85;34.19;101110.72;1750361;79;27160;-39
2021/09/30 11:36:31;;;;;;;68.17;53.17;;;;;;;22.82;33.43;101115.77;1752151;80;21573;-40
2021/09/30 11:38:58;;;;;;;42.08;34.25;;;;;;;22.73;32.94;101115.00;1723094;81;21658;-39
2021/09/30 11:41:28;;;;;;;33.42;27.75;;;;;;;22.62;32.41;101110.27;1726224;80;21605;-40
2021/09/30 11:43:55;;;;;;;31.82;26.33;;;;;;;22.47;31.82;101107.16;1745724;80;21039;-40
2021/09/30 11:46:32;;;;;;;27.90;23.85;;;;;;;22.29;32.12;101103.73;1743540;79;21153;-39
2021/09/30 11:49:00;;;;;;;33.95;26.40;;;;;;;22.21;32.40;101109.53;1734531;80;21522;-39
2021/09/30 11:51:38;;;;;;;28.38;23.35;;;;;;;22.19;32.96;101102.05;1770722;79;21570;-40
2021/09/30 11:54:05;;;;;;;24.18;19.95;;;;;;;22.19;33.38;101099.38;1761079;79;20984;-40
2021/09/30 11:56:42;;;;;;;23.60;15.88;;;;;;;22.22;32.89;101096.48;1751170;79;22237;-40
2021/09/30 11:59:09;;;;;;;20.70;15.60;;;;;;;22.22;32.53;101095.14;1651831;83;22158;-40
2021/09/30 12:01:42;;;;;;;18.87;13.05;;;;;;;22.20;32.50;101093.52;1675656;82;22291;-39
2021/09/30 12:04:09;;;;;;;12.05;10.85;;;;;;;22.15;32.17;101092.45;1661304;83;21146;-39
2021/09/30 12:06:47;;;;;;;14.53;13.03;;;;;;;22.13;31.95;101097.03;1686225;83;21052;-39
2021/09/30 12:09:15;;;;;;;11.08;9.93;;;;;;;22.13;33.56;101093.02;1680677;83;22404;-40
2021/09/30 12:11:52;;;;;;;11.50;10.23;;;;;;;22.08;32.57;101086.58;1684050;82;21079;-39
2021/09/30 12:14:20;;;;;;;11.00;8.88;;;;;;;21.97;33.18;101082.78;1690789;83;20976;-39
2021/09/30 12:16:58;;;;;;;9.10;8.20;;;;;;;21.94;33.33;101081.62;1679803;83;21093;-39
2021/09/30 12:19:32;;;;;;;11.68;8.25;;;;;;;21.95;33.08;101073.98;1682653;83;20995;-41
2021/09/30 12:21:59;;;;;;;7.87;7.08;;;;;;;21.96;33.25;101075.23;1672505;83;21102;-39
2021/09/30 12:24:26;;;;;;;7.03;6.33;;;;;;;21.99;33.12;101072.38;1663245;82;21064;-40
2021/09/30 12:26:53;;;;;;;7.75;6.08;;;;;;;22.00;32.51;101068.73;1722993;80;21046;-39
2021/09/30 12:29:21;;;;;;;408.02;321.95;;;;;;;22.00;32.37;101071.89;1760068;80;21523;-39
2021/09/30 12:32:04;;;;;;;269.55;226.92;;;;;;;21.99;32.09;101070.16;1744898;80;21100;-40
2021/09/30 12:34:31;;;;;;;162.47;128.15;;;;;;;21.95;31.79;101065.45;1739956;80;21098;-40
2021/09/30 12:36:58;;;;;;;124.75;100.00;;;;;;;21.92;33.07;101067.45;1752818;79;22060;-39
2021/09/30 12:39:27;;;;;;;112.22;89.77;;;;;;;21.95;32.97;101067.28;1733379;80;21176;-41
2021/09/30 12:41:55;;;;;;;85.30;62.90;;;;;;;21.97;33.22;101067.59;1709889;81;21612;-39
2021/09/30 12:44:22;;;;;;;83.07;62.62;;;;;;;21.99;32.24;101058.09;1746437;79;21157;-39
2021/09/30 12:46:51;;;;;;;76.72;60.90;;;;;;;21.98;32.61;101061.75;1755662;80;21127;-40
2021/09/30 12:49:19;;;;;;;67.00;49.58;;;;;;;21.97;32.91;101056.88;1753619;80;21087;-39
2021/09/30 12:51:46;;;;;;;53.92;43.75;;;;;;;22.01;32.91;101054.39;1739177;80;21031;-40
2021/09/30 12:54:12;;;;;;;54.70;41.75;;;;;;;22.05;32.76;101052.39;1671075;83;21091;-40
2021/09/30 12:56:40;;;;;;;45.00;36.10;;;;;;;22.06;32.80;101045.59;1666467;84;21528;-40
2021/09/30 12:59:14;;;;;;;49.88;38.55;;;;;;;22.10;32.79;101051.64;1701716;82;21024;-40
2021/09/30 13:01:43;;;;;;;42.58;34.63;;;;;;;22.12;33.02;101051.06;1751047;80;21055;-40
2021/09/30 13:04:24;;;;;;;42.40;31.57;;;;;;;22.16;33.05;101043.25;1755769;80;21046;-39
2021/09/30 13:07:00;;;;;;;34.35;27.62;;;;;;;22.18;32.81;101041.82;1752096;80;21005;-40
2021/09/30 13:09:34;;;;;;;31.15;25.72;;;;;;;22.20;32.38;101039.91;1755657;79;21012;-40
2021/09/30 13:12:03;;;;;;;32.23;25.08;;;;;;;22.20;32.26;101033.20;1757014;79;21039;-40
2021/09/30 13:14:37;;;;;;;27.15;20.72;;;;;;;22.20;32.38;101040.77;1753536;79;21118;-40
2021/09/30 13:17:17;;;;;;;23.65;18.17;;;;;;;22.20;32.39;101032.72;1752704;79;21518;-39
2021/09/30 13:19:53;;;;;;;19.52;14.68;;;;;;;22.20;31.82;101029.19;1730573;80;21121;-41
2021/09/30 13:22:23;;;;;;;18.85;14.18;;;;;;;22.19;31.83;101024.77;1750704;80;21056;-39
2021/09/30 13:24:51;;;;;;;16.17;13.50;;;;;;;22.18;31.88;101023.91;1748811;80;21063;-40
2021/09/30 13:27:22;;;;;;;13.30;11.93;;;;;;;22.17;31.80;101019.48;1730462;79;21108;-39
2021/09/30 13:29:49;;;;;;;15.78;10.93;;;;;;;22.16;31.68;101017.78;1736477;80;22282;-40
2021/09/30 13:32:16;;;;;;;11.10;10.00;;;;;;;22.16;31.39;101019.61;1759471;79;21543;-40
2021/09/30 13:34:43;;;;;;;12.98;10.55;;;;;;;22.13;31.53;101011.75;1751710;79;21074;-40
2021/09/30 13:37:10;;;;;;;11.73;10.53;;;;;;;22.11;31.77;101009.16;1723293;79;21957;-39
2021/09/30 13:39:37;;;;;;;11.43;9.75;;;;;;;22.09;31.97;101008.39;1719057;80;21043;-41
2021/09/30 13:42:06;;;;;;;11.73;9.43;;;;;;;22.11;32.13;101009.16;1739421;80;21055;-40
2021/09/30 13:44:33;;;;;;;11.73;9.68;;;;;;;22.13;32.79;101004.56;1741996;80;21126;-39
2021/09/30 13:46:59;;;;;;;16.32;8.75;;;;;;;22.16;33.23;101001.70;1725885;80;21174;-40
2021/09/30 13:49:26;;;;;;;10.35;8.63;;;;;;;22.17;32.28;100990.00;1754745;79;21034;-40
2021/09/30 13:51:52;;;;;;;8.50;7.60;;;;;;;22.16;32.57;100990.98;1716395;81;21034;-40
2021/09/30 13:54:18;;;;;;;9.35;7.80;;;;;;;22.14;31.87;100994.69;1741786;79;21037;-41
2021/09/30 13:56:45;;;;;;;7.72;6.45;;;;;;;22.09;31.73;100989.63;1766110;80;21659;-39
2021/09/30 13:59:12;;;;;;;12.80;6.95;;;;;;;22.05;31.67;100992.94;1729871;80;21153;-40
2021/09/30 14:01:39;;;;;;;7.30;6.60;;;;;;;21.99;31.82;100995.11;1744450;79;21007;-39
2021/09/30 14:04:05;;;;;;;9.53;6.00;;;;;;;21.97;32.26;100986.31;1734026;80;21094;-39
2021/09/30 14:06:32;;;;;;;6.53;5.92;;;;;;;21.96;32.13;100980.58;1751754;80;21400;-40
2021/09/30 14:08:59;;;;;;;8.43;6.20;;;;;;;21.97;32.15;100984.97;1741974;80;21070;-39
2021/09/30 14:11:25;;;;;;;6.28;5.10;;;;;;;21.97;31.62;100984.97;1730709;80;21700;-40
2021/09/30 14:13:55;;;;;;;6.12;5.53;;;;;;;21.93;31.37;100979.42;1721409;81;21081;-40
2021/09/30 14:16:22;;;;;;;6.72;6.08;;;;;;;21.90;32.21;100976.42;1741565;79;21126;-39